If you wish to contribute or participate in the discussions about articles you are invited to join SKYbrary as a registered user

 Actions

Beirut International

From SKYbrary Wiki

OLBA
Airport
ICAO: OLBA
Summary
Name Beirut International
Region Middle East
Territory Lebanon LB.gif
Location Beirut International, Lebanon
Serving
Coordinates 33° 49' 3.02" N, 35° 29' 23.26" E
Runways
Designator Length Width Surface ROPS
3/21 3800 m12,467.192 ft
45 m147.638 ft
CON yes/yes
16/34 3395 m11,138.451 ft
45 m147.638 ft
CON yes/yes
17/35 3250 m10,662.73 ft
60 m196.85 ft
ASP yes/yes


METAR
Observation OLBA 241800Z 01010KT 7000 BKN026 17/10 Q1003 NOSIG
Station Beyrouth Aeroport
Date/Time 24 March 2019 18:00:00
Wind direction 10°
Wind speed 10 kts
Lowest cloud amount broken clouds
Temperature 17°C
Dew point 10°C
Humidity 63%
QNH 1003 hPa
Weather condition n/a


Beirut International Airport

ICAO: OLBA IATA: MAN

Description

International airport serving Beirut, capital of Lebanon.

Climatology

Dry-summer subtropical ”Mediterranean" climate (Köppen climate classification Csa) - characterized by hot, dry summers and mild winters. During the summer, subtropical high pressure cells dominate, making rainfall unlikely except for the occasional thunderstorm. In the winter, periodic storms bring rain.

Maps

Terrain

Loading map...

Airport Layout

Loading map...


Accidents & Serious Incidents at or in vicinity of OLBA

None on SKYbrary